sensor_id;sensor_type;location;lat;lon;timestamp;pressure;altitude;pressure_sealevel;temperature;humidity
62710;BME280;48770;51.624;5.886;2023-05-24T00:02:07;102301.94;;;23.93;27.49
62710;BME280;48770;51.624;5.886;2023-05-24T00:04:33;102303.09;;;23.92;27.64
62710;BME280;48770;51.624;5.886;2023-05-24T00:06:58;102300.63;;;23.90;27.48
62710;BME280;48770;51.624;5.886;2023-05-24T00:09:29;102300.63;;;23.90;27.82
62710;BME280;48770;51.624;5.886;2023-05-24T00:11:54;102306.56;;;23.89;27.92
62710;BME280;48770;51.624;5.886;2023-05-24T00:14:20;102290.47;;;23.86;27.68
62710;BME280;48770;51.624;5.886;2023-05-24T00:16:45;102290.47;;;23.86;27.91
62710;BME280;48770;51.624;5.886;2023-05-24T00:19:10;102284.41;;;23.84;27.39
62710;BME280;48770;51.624;5.886;2023-05-24T00:21:36;102280.00;;;23.83;27.60
62710;BME280;48770;51.624;5.886;2023-05-24T00:24:01;102283.13;;;23.81;27.66
62710;BME280;48770;51.624;5.886;2023-05-24T00:26:26;102275.91;;;23.80;28.02
62710;BME280;48770;51.624;5.886;2023-05-24T00:28:52;102280.66;;;23.80;27.92
62710;BME280;48770;51.624;5.886;2023-05-24T00:31:17;102276.25;;;23.79;27.92
62710;BME280;48770;51.624;5.886;2023-05-24T00:33:42;102280.19;;;23.78;27.78
62710;BME280;48770;51.624;5.886;2023-05-24T00:36:08;102280.53;;;23.76;27.65
62710;BME280;48770;51.624;5.886;2023-05-24T00:38:33;102278.91;;;23.75;27.72
62710;BME280;48770;51.624;5.886;2023-05-24T00:40:58;102266.09;;;23.74;27.84
62710;BME280;48770;51.624;5.886;2023-05-24T00:43:25;102279.22;;;23.74;28.06
62710;BME280;48770;51.624;5.886;2023-05-24T00:46:10;102281.53;;;23.72;28.08
62710;BME280;48770;51.624;5.886;2023-05-24T00:48:37;102273.16;;;23.72;28.23
62710;BME280;48770;51.624;5.886;2023-05-24T00:51:03;102275.47;;;23.70;27.64
62710;BME280;48770;51.624;5.886;2023-05-24T00:53:28;102266.28;;;23.69;28.21
62710;BME280;48770;51.624;5.886;2023-05-24T00:55:54;102270.22;;;23.68;27.94
62710;BME280;48770;51.624;5.886;2023-05-24T00:58:20;102263.00;;;23.67;27.91
62710;BME280;48770;51.624;5.886;2023-05-24T01:00:51;102260.53;;;23.65;28.14
62710;BME280;48770;51.624;5.886;2023-05-24T01:03:20;102265.63;;;23.63;28.08
62710;BME280;48770;51.624;5.886;2023-05-24T01:05:46;102257.59;;;23.62;28.36
62710;BME280;48770;51.624;5.886;2023-05-24T01:08:34;102254.34;;;23.60;27.89
62710;BME280;48770;51.624;5.886;2023-05-24T01:11:12;102250.72;;;23.59;27.80
62710;BME280;48770;51.624;5.886;2023-05-24T01:13:57;102250.25;;;23.57;28.09
62710;BME280;48770;51.624;5.886;2023-05-24T01:16:40;102245.31;;;23.54;28.26
62710;BME280;48770;51.624;5.886;2023-05-24T01:22:00;102251.56;;;23.51;28.18
62710;BME280;48770;51.624;5.886;2023-05-24T01:25:02;102249.44;;;23.48;28.24
62710;BME280;48770;51.624;5.886;2023-05-24T01:27:30;102246.66;;;23.48;28.01
62710;BME280;48770;51.624;5.886;2023-05-24T01:29:56;102241.06;;;23.48;27.99
62710;BME280;48770;51.624;5.886;2023-05-24T01:32:22;102245.84;;;23.48;28.32
62710;BME280;48770;51.624;5.886;2023-05-24T01:34:48;102247.00;;;23.47;28.06
62710;BME280;48770;51.624;5.886;2023-05-24T01:37:13;102244.53;;;23.45;28.17
62710;BME280;48770;51.624;5.886;2023-05-24T01:39:39;102247.69;;;23.44;28.32
62710;BME280;48770;51.624;5.886;2023-05-24T01:42:10;102244.88;;;23.44;28.00
62710;BME280;48770;51.624;5.886;2023-05-24T01:45:01;102251.94;;;23.41;27.98
62710;BME280;48770;51.624;5.886;2023-05-24T01:52:37;102243.41;;;23.37;28.34
62710;BME280;48770;51.624;5.886;2023-05-24T01:55:03;102243.41;;;23.37;28.16
62710;BME280;48770;51.624;5.886;2023-05-24T01:57:33;102243.75;;;23.36;28.01
62710;BME280;48770;51.624;5.886;2023-05-24T01:59:59;102253.28;;;23.35;28.31
62710;BME280;48770;51.624;5.886;2023-05-24T02:02:27;102238.84;;;23.33;28.26
62710;BME280;48770;51.624;5.886;2023-05-24T02:04:53;102245.25;;;23.33;28.35
62710;BME280;48770;51.624;5.886;2023-05-24T02:07:20;102244.75;;;23.31;28.38
62710;BME280;48770;51.624;5.886;2023-05-24T02:09:45;102233.13;;;23.29;28.31
62710;BME280;48770;51.624;5.886;2023-05-24T02:12:11;102243.47;;;23.29;28.15
62710;BME280;48770;51.624;5.886;2023-05-24T02:14:36;102243.81;;;23.27;28.25
62710;BME280;48770;51.624;5.886;2023-05-24T02:17:02;102248.56;;;23.27;28.24
62710;BME280;48770;51.624;5.886;2023-05-24T02:19:27;102255.31;;;23.26;28.13
62710;BME280;48770;51.624;5.886;2023-05-24T02:21:53;102252.03;;;23.24;28.07
62710;BME280;48770;51.624;5.886;2023-05-24T02:24:18;102254.00;;;23.23;28.39
62710;BME280;48770;51.624;5.886;2023-05-24T02:26:44;102255.16;;;23.22;28.09
62710;BME280;48770;51.624;5.886;2023-05-24T02:29:09;102250.72;;;23.21;28.18
62710;BME280;48770;51.624;5.886;2023-05-24T02:31:35;102254.66;;;23.20;28.31
62710;BME280;48770;51.624;5.886;2023-05-24T02:34:00;102243.84;;;23.19;28.00
62710;BME280;48770;51.624;5.886;2023-05-24T02:36:26;102253.38;;;23.18;28.10
62710;BME280;48770;51.624;5.886;2023-05-24T02:38:52;102251.75;;;23.17;28.20
62710;BME280;48770;51.624;5.886;2023-05-24T02:41:18;102250.06;;;23.16;28.41
62710;BME280;48770;51.624;5.886;2023-05-24T02:43:44;102248.44;;;23.15;28.44
62710;BME280;48770;51.624;5.886;2023-05-24T02:46:10;102255.16;;;23.14;27.99
62710;BME280;48770;51.624;5.886;2023-05-24T02:48:35;102246.31;;;23.12;28.11
62710;BME280;48770;51.624;5.886;2023-05-24T02:51:01;102247.47;;;23.11;28.33
62710;BME280;48770;51.624;5.886;2023-05-24T02:53:28;102255.03;;;23.10;28.45
62710;BME280;48770;51.624;5.886;2023-05-24T02:55:53;102254.19;;;23.10;28.16
62710;BME280;48770;51.624;5.886;2023-05-24T02:58:18;102256.50;;;23.07;28.01
62710;BME280;48770;51.624;5.886;2023-05-24T03:00:44;102257.66;;;23.06;28.13
62710;BME280;48770;51.624;5.886;2023-05-24T03:03:09;102260.78;;;23.05;28.54
62710;BME280;48770;51.624;5.886;2023-05-24T03:05:34;102259.16;;;23.04;28.08
62710;BME280;48770;51.624;5.886;2023-05-24T03:08:00;102262.28;;;23.02;28.46
62710;BME280;48770;51.624;5.886;2023-05-24T03:10:25;102259.81;;;23.01;28.19
62710;BME280;48770;51.624;5.886;2023-05-24T03:12:50;102253.44;;;23.00;28.53
62710;BME280;48770;51.624;5.886;2023-05-24T03:15:16;102254.56;;;22.99;28.19
62710;BME280;48770;51.624;5.886;2023-05-24T03:17:41;102255.72;;;22.98;28.75
62710;BME280;48770;51.624;5.886;2023-05-24T03:20:07;102249.34;;;22.98;28.36
62710;BME280;48770;51.624;5.886;2023-05-24T03:22:32;102250.50;;;22.97;28.58
62710;BME280;48770;51.624;5.886;2023-05-24T03:24:57;102248.84;;;22.96;28.25
62710;BME280;48770;51.624;5.886;2023-05-24T03:27:22;102240.81;;;22.94;28.39
62710;BME280;48770;51.624;5.886;2023-05-24T03:29:48;102241.97;;;22.93;28.80
62710;BME280;48770;51.624;5.886;2023-05-24T03:32:13;102232.78;;;22.93;28.71
62710;BME280;48770;51.624;5.886;2023-05-24T03:34:38;102235.09;;;22.91;28.43
62710;BME280;48770;51.624;5.886;2023-05-24T03:37:04;102229.81;;;22.89;28.42
62710;BME280;48770;51.624;5.886;2023-05-24T03:39:29;102227.03;;;22.89;28.59
62710;BME280;48770;51.624;5.886;2023-05-24T03:41:54;102230.97;;;22.88;28.50
62710;BME280;48770;51.624;5.886;2023-05-24T03:44:20;102232.13;;;22.87;28.78
62710;BME280;48770;51.624;5.886;2023-05-24T03:46:45;102237.69;;;22.87;28.59
62710;BME280;48770;51.624;5.886;2023-05-24T03:49:10;102244.44;;;22.86;28.86
62710;BME280;48770;51.624;5.886;2023-05-24T03:51:36;102238.84;;;22.86;28.84
62710;BME280;48770;51.624;5.886;2023-05-24T03:54:01;102236.72;;;22.83;28.43
62710;BME280;48770;51.624;5.886;2023-05-24T03:56:27;102234.75;;;22.84;28.72
62710;BME280;48770;51.624;5.886;2023-05-24T03:58:52;102236.72;;;22.83;28.84
62710;BME280;48770;51.624;5.886;2023-05-24T04:01:18;102233.94;;;22.83;29.15
62710;BME280;48770;51.624;5.886;2023-05-24T04:03:45;102227.88;;;22.81;28.98
62710;BME280;48770;51.624;5.886;2023-05-24T04:06:11;102226.72;;;22.82;28.92
62710;BME280;48770;51.624;5.886;2023-05-24T04:08:37;102229.81;;;22.81;28.94
62710;BME280;48770;51.624;5.886;2023-05-24T04:11:02;102224.91;;;22.77;29.19
62710;BME280;48770;51.624;5.886;2023-05-24T04:13:27;102230.50;;;22.77;28.88
62710;BME280;48770;51.624;5.886;2023-05-24T04:15:53;102231.97;;;22.75;29.20
62710;BME280;48770;51.624;5.886;2023-05-24T04:18:18;102239.53;;;22.74;28.86
62710;BME280;48770;51.624;5.886;2023-05-24T04:20:43;102242.66;;;22.73;29.10
62710;BME280;48770;51.624;5.886;2023-05-24T04:23:09;102242.66;;;22.73;29.06
62710;BME280;48770;51.624;5.886;2023-05-24T04:25:34;102244.63;;;22.72;29.12
62710;BME280;48770;51.624;5.886;2023-05-24T04:27:59;102241.00;;;22.72;29.10
62710;BME280;48770;51.624;5.886;2023-05-24T04:30:28;102241.81;;;22.72;29.17
62710;BME280;48770;51.624;5.886;2023-05-24T04:32:54;102248.56;;;22.71;28.82
62710;BME280;48770;51.624;5.886;2023-05-24T04:35:21;102244.94;;;22.71;29.15
62710;BME280;48770;51.624;5.886;2023-05-24T04:37:46;102239.69;;;22.69;29.32
62710;BME280;48770;51.624;5.886;2023-05-24T04:40:14;102239.69;;;22.69;29.02
62710;BME280;48770;51.624;5.886;2023-05-24T04:42:40;102246.09;;;22.70;28.90
62710;BME280;48770;51.624;5.886;2023-05-24T04:45:06;102250.84;;;22.69;29.16
62710;BME280;48770;51.624;5.886;2023-05-24T04:47:32;102256.75;;;22.68;29.07
62710;BME280;48770;51.624;5.886;2023-05-24T04:49:57;102259.56;;;22.68;29.11
62710;BME280;48770;51.624;5.886;2023-05-24T04:52:22;102258.25;;;22.65;29.29
62710;BME280;48770;51.624;5.886;2023-05-24T04:54:48;102263.00;;;22.65;29.15
62710;BME280;48770;51.624;5.886;2023-05-24T04:57:14;102266.91;;;22.64;29.01
62710;BME280;48770;51.624;5.886;2023-05-24T04:59:39;102259.69;;;22.63;29.42
62710;BME280;48770;51.624;5.886;2023-05-24T05:02:04;102263.31;;;22.63;29.22
62710;BME280;48770;51.624;5.886;2023-05-24T05:04:30;102262.50;;;22.63;29.61
62710;BME280;48770;51.624;5.886;2023-05-24T05:06:56;102258.88;;;22.62;29.63
62710;BME280;48770;51.624;5.886;2023-05-24T05:09:21;102261.66;;;22.62;29.20
62710;BME280;48770;51.624;5.886;2023-05-24T05:11:48;102261.66;;;22.62;29.32
62710;BME280;48770;51.624;5.886;2023-05-24T05:14:14;102267.25;;;22.62;29.85
62710;BME280;48770;51.624;5.886;2023-05-24T05:16:41;102259.69;;;22.63;29.81
62710;BME280;48770;51.624;5.886;2023-05-24T05:19:06;102262.81;;;22.61;29.50
62710;BME280;48770;51.624;5.886;2023-05-24T05:21:32;102260.84;;;22.62;29.52
62710;BME280;48770;51.624;5.886;2023-05-24T05:23:58;102258.06;;;22.62;29.64
62710;BME280;48770;51.624;5.886;2023-05-24T05:26:25;102252.50;;;22.62;29.74
62710;BME280;48770;51.624;5.886;2023-05-24T05:28:51;102256.09;;;22.62;30.06
62710;BME280;48770;51.624;5.886;2023-05-24T05:31:16;102263.63;;;22.62;30.19
62710;BME280;48770;51.624;5.886;2023-05-24T05:33:41;102263.63;;;22.62;29.80
62710;BME280;48770;51.624;5.886;2023-05-24T05:36:07;102258.88;;;22.62;30.18
62710;BME280;48770;51.624;5.886;2023-05-24T05:38:32;102261.66;;;22.62;30.27
62710;BME280;48770;51.624;5.886;2023-05-24T05:40:57;102263.63;;;22.62;30.36
62710;BME280;48770;51.624;5.886;2023-05-24T05:43:22;102259.69;;;22.63;29.96
62710;BME280;48770;51.624;5.886;2023-05-24T05:45:49;102262.50;;;22.63;30.23
62710;BME280;48770;51.624;5.886;2023-05-24T05:48:14;102255.75;;;22.64;30.42
62710;BME280;48770;51.624;5.886;2023-05-24T05:50:40;102258.06;;;22.62;30.44
62710;BME280;48770;51.624;5.886;2023-05-24T05:53:05;102248.56;;;22.63;30.14
62710;BME280;48770;51.624;5.886;2023-05-24T05:55:30;102254.13;;;22.63;30.40
62710;BME280;48770;51.624;5.886;2023-05-24T05:57:55;102257.72;;;22.63;30.73
62710;BME280;48770;51.624;5.886;2023-05-24T06:00:21;102263.31;;;22.63;30.57
62710;BME280;48770;51.624;5.886;2023-05-24T06:02:47;102264.66;;;22.66;30.92
62710;BME280;48770;51.624;5.886;2023-05-24T06:05:12;102268.59;;;22.65;30.47
62710;BME280;48770;51.624;5.886;2023-05-24T06:07:38;102264.66;;;22.66;31.04
62710;BME280;48770;51.624;5.886;2023-05-24T06:10:04;102264.66;;;22.66;30.87
62710;BME280;48770;51.624;5.886;2023-05-24T06:12:30;102270.22;;;22.66;30.64
62710;BME280;48770;51.624;5.886;2023-05-24T06:14:55;102270.22;;;22.66;30.67
62710;BME280;48770;51.624;5.886;2023-05-24T06:17:21;102277.44;;;22.67;31.04
62710;BME280;48770;51.624;5.886;2023-05-24T06:19:49;102273.50;;;22.68;30.75
62710;BME280;48770;51.624;5.886;2023-05-24T06:22:18;102285.47;;;22.68;31.01
62710;BME280;48770;51.624;5.886;2023-05-24T06:24:43;102279.88;;;22.68;30.84
62710;BME280;48770;51.624;5.886;2023-05-24T06:27:08;102283.81;;;22.67;31.37
62710;BME280;48770;51.624;5.886;2023-05-24T06:29:34;102278.25;;;22.67;30.91
62710;BME280;48770;51.624;5.886;2023-05-24T06:31:59;102288.25;;;22.68;31.25
62710;BME280;48770;51.624;5.886;2023-05-24T06:34:25;102288.59;;;22.67;31.31
62710;BME280;48770;51.624;5.886;2023-05-24T06:36:51;102279.88;;;22.68;30.94
62710;BME280;48770;51.624;5.886;2023-05-24T06:39:19;102280.72;;;22.69;31.39
62710;BME280;48770;51.624;5.886;2023-05-24T06:41:44;102283.16;;;22.70;31.18
62710;BME280;48770;51.624;5.886;2023-05-24T06:44:11;102289.56;;;22.71;31.33
62710;BME280;48770;51.624;5.886;2023-05-24T06:46:36;102292.69;;;22.69;31.15
62710;BME280;48770;51.624;5.886;2023-05-24T06:49:01;102293.50;;;22.70;31.60
62710;BME280;48770;51.624;5.886;2023-05-24T06:51:27;102301.53;;;22.71;31.22
62710;BME280;48770;51.624;5.886;2023-05-24T06:53:53;102302.34;;;22.72;31.34
62710;BME280;48770;51.624;5.886;2023-05-24T06:56:18;102308.75;;;22.72;31.21
62710;BME280;48770;51.624;5.886;2023-05-24T06:58:44;102300.38;;;22.72;31.83
62710;BME280;48770;51.624;5.886;2023-05-24T07:01:10;102300.03;;;22.74;31.45
62710;BME280;48770;51.624;5.886;2023-05-24T07:03:36;102308.41;;;22.74;31.24
62710;BME280;48770;51.624;5.886;2023-05-24T07:06:01;102306.44;;;22.74;31.47
62710;BME280;48770;51.624;5.886;2023-05-24T07:08:28;102302.50;;;22.75;31.77
62710;BME280;48770;51.624;5.886;2023-05-24T07:10:54;102303.31;;;22.76;31.71
62710;BME280;48770;51.624;5.886;2023-05-24T07:13:20;102300.53;;;22.76;31.42
62710;BME280;48770;51.624;5.886;2023-05-24T07:15:45;102304.97;;;22.77;31.69
62710;BME280;48770;51.624;5.886;2023-05-24T07:18:11;102303.47;;;22.80;31.76
62710;BME280;48770;51.624;5.886;2023-05-24T07:20:36;102305.13;;;22.81;31.70
62710;BME280;48770;51.624;5.886;2023-05-24T07:23:02;102301.50;;;22.80;31.61
62710;BME280;48770;51.624;5.886;2023-05-24T07:25:28;102302.31;;;22.81;31.90
62710;BME280;48770;51.624;5.886;2023-05-24T07:27:54;102305.13;;;22.81;31.56
62710;BME280;48770;51.624;5.886;2023-05-24T07:30:19;102305.97;;;22.81;31.77
62710;BME280;48770;51.624;5.886;2023-05-24T07:32:44;102305.97;;;22.81;31.75
62710;BME280;48770;51.624;5.886;2023-05-24T07:35:11;102309.56;;;22.82;31.80
62710;BME280;48770;51.624;5.886;2023-05-24T07:37:39;102310.41;;;22.82;31.55
62710;BME280;48770;51.624;5.886;2023-05-24T07:40:05;102310.41;;;22.82;31.77
62710;BME280;48770;51.624;5.886;2023-05-24T07:42:32;102306.44;;;22.83;32.08
62710;BME280;48770;51.624;5.886;2023-05-24T07:44:57;102312.84;;;22.84;31.63
62710;BME280;48770;51.624;5.886;2023-05-24T07:47:22;102309.25;;;22.83;31.54
62710;BME280;48770;51.624;5.886;2023-05-24T07:49:48;102306.44;;;22.83;31.95
62710;BME280;48770;51.624;5.886;2023-05-24T07:52:13;102302.50;;;22.84;31.61
62710;BME280;48770;51.624;5.886;2023-05-24T07:54:38;102304.16;;;22.85;31.76
62710;BME280;48770;51.624;5.886;2023-05-24T07:57:04;102303.00;;;22.86;32.07
62710;BME280;48770;51.624;5.886;2023-05-24T07:59:30;102299.06;;;22.87;32.14
62710;BME280;48770;51.624;5.886;2023-05-24T08:01:55;102304.63;;;22.87;32.01
62710;BME280;48770;51.624;5.886;2023-05-24T08:04:25;102304.63;;;22.87;31.96
62710;BME280;48770;51.624;5.886;2023-05-24T08:06:50;102295.13;;;22.88;31.72
62710;BME280;48770;51.624;5.886;2023-05-24T08:09:16;102298.72;;;22.89;31.60
62710;BME280;48770;51.624;5.886;2023-05-24T08:11:41;102293.97;;;22.89;31.93
62710;BME280;48770;51.624;5.886;2023-05-24T08:14:06;102292.84;;;22.90;31.78
62710;BME280;48770;51.624;5.886;2023-05-24T08:16:32;102295.63;;;22.90;31.92
62710;BME280;48770;51.624;5.886;2023-05-24T08:18:57;102288.91;;;22.91;31.71
62710;BME280;48770;51.624;5.886;2023-05-24T08:21:22;102300.06;;;22.91;31.52
62710;BME280;48770;51.624;5.886;2023-05-24T08:23:48;102293.34;;;22.92;31.21
62710;BME280;48770;51.624;5.886;2023-05-24T08:26:13;102294.47;;;22.91;31.61
62710;BME280;48770;51.624;5.886;2023-05-24T08:28:40;102299.72;;;22.93;31.29
62710;BME280;48770;51.624;5.886;2023-05-24T08:31:06;102292.19;;;22.93;31.27
62710;BME280;48770;51.624;5.886;2023-05-24T08:33:31;102290.22;;;22.94;31.60
62710;BME280;48770;51.624;5.886;2023-05-24T08:35:56;102288.56;;;22.93;31.29
62710;BME280;48770;51.624;5.886;2023-05-24T08:38:22;102296.59;;;22.94;31.66
62710;BME280;48770;51.624;5.886;2023-05-24T08:40:47;102286.59;;;22.93;31.23
62710;BME280;48770;51.624;5.886;2023-05-24T08:43:13;102286.25;;;22.95;31.51
62710;BME280;48770;51.624;5.886;2023-05-24T08:45:38;102288.22;;;22.94;31.58
62710;BME280;48770;51.624;5.886;2023-05-24T08:48:05;102288.22;;;22.94;31.14
62710;BME280;48770;51.624;5.886;2023-05-24T08:50:34;102294.63;;;22.95;31.45
62710;BME280;48770;51.624;5.886;2023-05-24T08:53:00;102288.72;;;22.96;31.50
62710;BME280;48770;51.624;5.886;2023-05-24T08:55:28;102291.19;;;22.98;31.52
62710;BME280;48770;51.624;5.886;2023-05-24T08:57:54;102283.16;;;22.96;31.20
62710;BME280;48770;51.624;5.886;2023-05-24T09:00:20;102285.59;;;22.98;30.92
62710;BME280;48770;51.624;5.886;2023-05-24T09:02:46;102291.50;;;22.96;31.45
62710;BME280;48770;51.624;5.886;2023-05-24T09:05:13;102282.00;;;22.97;31.52
62710;BME280;48770;51.624;5.886;2023-05-24T09:07:42;102271.66;;;22.98;31.05
62710;BME280;48770;51.624;5.886;2023-05-24T09:10:08;102272.47;;;22.98;31.05
62710;BME280;48770;51.624;5.886;2023-05-24T09:12:36;102274.09;;;22.99;31.21
62710;BME280;48770;51.624;5.886;2023-05-24T09:15:02;102272.94;;;23.00;31.00
62710;BME280;48770;51.624;5.886;2023-05-24T09:17:29;102263.44;;;23.01;30.88
62710;BME280;48770;51.624;5.886;2023-05-24T09:19:56;102269.81;;;23.02;31.35
62710;BME280;48770;51.624;5.886;2023-05-24T09:22:24;102269.50;;;23.03;31.22
62710;BME280;48770;51.624;5.886;2023-05-24T09:24:50;102268.34;;;23.04;30.87
62710;BME280;48770;51.624;5.886;2023-05-24T09:27:16;102267.19;;;23.05;30.84
62710;BME280;48770;51.624;5.886;2023-05-24T09:29:43;102273.25;;;23.07;31.39
62710;BME280;48770;51.624;5.886;2023-05-24T09:32:15;102262.56;;;23.10;30.76
62710;BME280;48770;51.624;5.886;2023-05-24T09:34:42;102268.16;;;23.10;31.07
62710;BME280;48770;51.624;5.886;2023-05-24T09:37:11;102267.34;;;23.09;30.97
62710;BME280;48770;51.624;5.886;2023-05-24T09:39:39;102268.16;;;23.10;31.13
62710;BME280;48770;51.624;5.886;2023-05-24T09:42:06;102265.38;;;23.10;30.96
62710;BME280;48770;51.624;5.886;2023-05-24T09:44:31;102269.31;;;23.08;31.15
62710;BME280;48770;51.624;5.886;2023-05-24T09:47:01;102268.16;;;23.10;30.70
62710;BME280;48770;51.624;5.886;2023-05-24T09:49:29;102269.31;;;23.08;31.15
62710;BME280;48770;51.624;5.886;2023-05-24T09:51:54;102268.97;;;23.10;31.14
62710;BME280;48770;51.624;5.886;2023-05-24T09:54:20;102271.75;;;23.10;30.83
62710;BME280;48770;51.624;5.886;2023-05-24T09:56:46;102269.78;;;23.11;30.76
62710;BME280;48770;51.624;5.886;2023-05-24T09:59:11;102273.41;;;23.11;30.83
62710;BME280;48770;51.624;5.886;2023-05-24T10:01:36;102267.00;;;23.11;30.77
62710;BME280;48770;51.624;5.886;2023-05-24T10:04:02;102256.31;;;23.13;31.12
62710;BME280;48770;51.624;5.886;2023-05-24T10:06:34;102267.47;;;23.13;30.88
62710;BME280;48770;51.624;5.886;2023-05-24T10:09:02;102266.31;;;23.14;30.94
62710;BME280;48770;51.624;5.886;2023-05-24T10:11:35;102274.69;;;23.14;31.22
62710;BME280;48770;51.624;5.886;2023-05-24T10:14:04;102281.09;;;23.14;30.87
62710;BME280;48770;51.624;5.886;2023-05-24T10:16:31;102281.09;;;23.14;31.30
62710;BME280;48770;51.624;5.886;2023-05-24T10:18:56;102272.72;;;23.14;31.07
62710;BME280;48770;51.624;5.886;2023-05-24T10:21:22;102280.28;;;23.14;30.78
62710;BME280;48770;51.624;5.886;2023-05-24T10:23:50;102270.75;;;23.15;30.89
62710;BME280;48770;51.624;5.886;2023-05-24T10:26:16;102271.09;;;23.13;30.82
62710;BME280;48770;51.624;5.886;2023-05-24T10:28:44;102269.94;;;23.14;31.23
62710;BME280;48770;51.624;5.886;2023-05-24T10:31:14;102272.72;;;23.14;31.12
62710;BME280;48770;51.624;5.886;2023-05-24T10:33:43;102280.28;;;23.14;31.19
62710;BME280;48770;51.624;5.886;2023-05-24T10:36:10;102272.72;;;23.14;31.24
62710;BME280;48770;51.624;5.886;2023-05-24T10:38:38;102278.31;;;23.14;31.06
62710;BME280;48770;51.624;5.886;2023-05-24T10:41:05;102277.50;;;23.14;30.80
62710;BME280;48770;51.624;5.886;2023-05-24T10:43:33;102274.38;;;23.15;30.83
62710;BME280;48770;51.624;5.886;2023-05-24T10:46:01;102273.53;;;23.15;31.36
62710;BME280;48770;51.624;5.886;2023-05-24T10:50:53;102277.50;;;23.14;31.38
62710;BME280;48770;51.624;5.886;2023-05-24T10:53:21;102277.50;;;23.14;31.37
62710;BME280;48770;51.624;5.886;2023-05-24T10:58:19;102283.06;;;23.14;30.93
62710;BME280;48770;51.624;5.886;2023-05-24T11:00:45;102278.31;;;23.14;31.05
62710;BME280;48770;51.624;5.886;2023-05-24T11:03:11;102278.31;;;23.14;31.02
62710;BME280;48770;51.624;5.886;2023-05-24T11:08:12;102275.53;;;23.14;31.18
62710;BME280;48770;51.624;5.886;2023-05-24T11:10:38;102273.88;;;23.13;31.03
62710;BME280;48770;51.624;5.886;2023-05-24T11:13:06;102267.47;;;23.13;31.28
62710;BME280;48770;51.624;5.886;2023-05-24T11:15:32;102263.53;;;23.14;31.11
62710;BME280;48770;51.624;5.886;2023-05-24T11:20:42;102266.31;;;23.14;31.09
62710;BME280;48770;51.624;5.886;2023-05-24T11:23:09;102263.19;;;23.15;31.13
62710;BME280;48770;51.624;5.886;2023-05-24T11:25:35;102262.91;;;23.17;31.69
62710;BME280;48770;51.624;5.886;2023-05-24T11:28:05;102266.50;;;23.17;31.23
62710;BME280;48770;51.624;5.886;2023-05-24T11:30:31;102257.81;;;23.19;31.45
62710;BME280;48770;51.624;5.886;2023-05-24T11:32:57;102263.03;;;23.20;31.30
62710;BME280;48770;51.624;5.886;2023-05-24T11:35:25;102259.44;;;23.20;31.42
62710;BME280;48770;51.624;5.886;2023-05-24T11:37:52;102271.09;;;23.22;31.56
62710;BME280;48770;51.624;5.886;2023-05-24T11:40:18;102264.34;;;23.23;31.10
62710;BME280;48770;51.624;5.886;2023-05-24T11:42:44;102261.22;;;23.24;31.43
62710;BME280;48770;51.624;5.886;2023-05-24T11:45:11;102257.28;;;23.25;31.26
62710;BME280;48770;51.624;5.886;2023-05-24T11:47:40;102255.31;;;23.26;31.36
62710;BME280;48770;51.624;5.886;2023-05-24T11:50:06;102254.16;;;23.27;31.57
62710;BME280;48770;51.624;5.886;2023-05-24T11:52:31;102257.41;;;23.29;31.70
62710;BME280;48770;51.624;5.886;2023-05-24T11:54:57;102249.88;;;23.29;31.16
62710;BME280;48770;51.624;5.886;2023-05-24T11:57:29;102249.53;;;23.31;31.37
62710;BME280;48770;51.624;5.886;2023-05-24T12:00:01;102257.56;;;23.32;31.38
62710;BME280;48770;51.624;5.886;2023-05-24T12:02:28;102250.00;;;23.33;31.52
62710;BME280;48770;51.624;5.886;2023-05-24T12:04:54;102248.84;;;23.34;31.07
62710;BME280;48770;51.624;5.886;2023-05-24T12:07:22;102250.50;;;23.35;31.22
62710;BME280;48770;51.624;5.886;2023-05-24T12:09:47;102251.78;;;23.37;31.13
62710;BME280;48770;51.624;5.886;2023-05-24T12:12:13;102246.69;;;23.39;31.10
62710;BME280;48770;51.624;5.886;2023-05-24T12:14:38;102239.94;;;23.41;31.41
62710;BME280;48770;51.624;5.886;2023-05-24T12:17:04;102234.88;;;23.43;30.89
62710;BME280;48770;51.624;5.886;2023-05-24T12:19:30;102240.94;;;23.45;31.22
62710;BME280;48770;51.624;5.886;2023-05-24T12:22:00;102235.84;;;23.47;31.02
62710;BME280;48770;51.624;5.886;2023-05-24T12:24:30;102228.75;;;23.49;31.01
62710;BME280;48770;51.624;5.886;2023-05-24T12:27:00;102232.03;;;23.51;31.00
62710;BME280;48770;51.624;5.886;2023-05-24T12:29:26;102241.22;;;23.52;30.88
62710;BME280;48770;51.624;5.886;2023-05-24T12:31:51;102229.72;;;23.53;31.35
62710;BME280;48770;51.624;5.886;2023-05-24T12:34:18;102227.41;;;23.55;30.87
62710;BME280;48770;51.624;5.886;2023-05-24T12:36:44;102234.31;;;23.58;30.93
62710;BME280;48770;51.624;5.886;2023-05-24T12:39:20;102234.31;;;23.58;30.97
62710;BME280;48770;51.624;5.886;2023-05-24T12:41:53;102231.50;;;23.58;31.21
62710;BME280;48770;51.624;5.886;2023-05-24T12:44:23;102231.56;;;23.41;31.25
62710;BME280;48770;51.624;5.886;2023-05-24T12:46:49;102225.63;;;23.51;31.05
62710;BME280;48770;51.624;5.886;2023-05-24T12:49:15;102230.19;;;23.55;30.90
62710;BME280;48770;51.624;5.886;2023-05-24T12:51:41;102227.91;;;23.57;30.99
62710;BME280;48770;51.624;5.886;2023-05-24T12:54:06;102229.53;;;23.58;31.03
62710;BME280;48770;51.624;5.886;2023-05-24T12:56:31;102233.97;;;23.59;30.98
62710;BME280;48770;51.624;5.886;2023-05-24T12:58:57;102222.81;;;23.59;30.75
62710;BME280;48770;51.624;5.886;2023-05-24T13:01:22;102226.41;;;23.60;30.79
62710;BME280;48770;51.624;5.886;2023-05-24T13:03:48;102223.28;;;23.61;31.03
62710;BME280;48770;51.624;5.886;2023-05-24T13:06:14;102225.72;;;23.63;31.09